sensor_id;sensor_type;location;lat;lon;timestamp;pressure;altitude;pressure_sealevel;temperature;humidity
9695;BME280;4690;52.422;13.486;2023-06-22T00:05:01;101590.06;;;23.22;70.21
9695;BME280;4690;52.422;13.486;2023-06-22T00:07:27;101581.97;;;23.21;70.03
9695;BME280;4690;52.422;13.486;2023-06-22T00:09:52;101585.06;;;23.19;70.30
9695;BME280;4690;52.422;13.486;2023-06-22T00:12:18;101584.81;;;23.16;70.11
9695;BME280;4690;52.422;13.486;2023-06-22T00:14:44;101591.00;;;23.13;70.15
9695;BME280;4690;52.422;13.486;2023-06-22T00:17:10;101588.78;;;23.10;70.22
9695;BME280;4690;52.422;13.486;2023-06-22T00:19:35;101586.56;;;23.07;70.54
9695;BME280;4690;52.422;13.486;2023-06-22T00:22:01;101590.47;;;23.05;70.57
9695;BME280;4690;52.422;13.486;2023-06-22T00:24:28;101601.97;;;23.04;70.75
9695;BME280;4690;52.422;13.486;2023-06-22T00:26:57;101603.94;;;23.03;70.36
9695;BME280;4690;52.422;13.486;2023-06-22T00:29:22;101609.78;;;23.02;70.48
9695;BME280;4690;52.422;13.486;2023-06-22T00:31:48;101612.91;;;23.00;70.48
9695;BME280;4690;52.422;13.486;2023-06-22T00:34:14;101612.34;;;22.98;70.36
9695;BME280;4690;52.422;13.486;2023-06-22T00:36:41;101619.34;;;22.96;70.04
9695;BME280;4690;52.422;13.486;2023-06-22T00:39:06;101616.78;;;22.94;69.89
9695;BME280;4690;52.422;13.486;2023-06-22T00:41:33;101611.78;;;22.91;70.04
9695;BME280;4690;52.422;13.486;2023-06-22T00:43:59;101618.78;;;22.89;70.38
9695;BME280;4690;52.422;13.486;2023-06-22T00:46:25;101614.31;;;22.88;70.47
9695;BME280;4690;52.422;13.486;2023-06-22T00:48:52;101610.97;;;22.86;70.25
9695;BME280;4690;52.422;13.486;2023-06-22T00:51:18;101611.28;;;22.84;70.60
9695;BME280;4690;52.422;13.486;2023-06-22T00:53:50;101609.59;;;22.83;70.66
9695;BME280;4690;52.422;13.486;2023-06-22T00:56:17;101623.88;;;22.81;70.98
9695;BME280;4690;52.422;13.486;2023-06-22T00:58:46;101623.03;;;22.81;70.81
9695;BME280;4690;52.422;13.486;2023-06-22T01:01:13;101611.88;;;22.81;71.27
9695;BME280;4690;52.422;13.486;2023-06-22T01:03:39;101617.72;;;22.79;71.29
9695;BME280;4690;52.422;13.486;2023-06-22T01:06:22;101621.94;;;22.77;71.40
9695;BME280;4690;52.422;13.486;2023-06-22T01:09:06;101619.72;;;22.74;71.35
9695;BME280;4690;52.422;13.486;2023-06-22T01:11:42;101629.22;;;22.73;71.17
9695;BME280;4690;52.422;13.486;2023-06-22T01:14:25;101630.63;;;22.70;71.32
9695;BME280;4690;52.422;13.486;2023-06-22T01:16:55;101628.66;;;22.71;71.27
9695;BME280;4690;52.422;13.486;2023-06-22T01:22:30;101623.66;;;22.68;71.48
9695;BME280;4690;52.422;13.486;2023-06-22T01:25:11;101620.31;;;22.66;71.81
9695;BME280;4690;52.422;13.486;2023-06-22T01:27:58;101623.66;;;22.68;71.70
9695;BME280;4690;52.422;13.486;2023-06-22T01:30:28;101621.69;;;22.68;71.07
9695;BME280;4690;52.422;13.486;2023-06-22T01:32:57;101621.13;;;22.66;71.01
9695;BME280;4690;52.422;13.486;2023-06-22T01:35:25;101622.00;;;22.67;70.64
9695;BME280;4690;52.422;13.486;2023-06-22T01:37:51;101629.81;;;22.65;71.20
9695;BME280;4690;52.422;13.486;2023-06-22T01:40:20;101634.00;;;22.67;71.87
9695;BME280;4690;52.422;13.486;2023-06-22T01:42:48;101631.75;;;22.69;71.56
9695;BME280;4690;52.422;13.486;2023-06-22T01:45:15;101634.25;;;22.71;70.87
9695;BME280;4690;52.422;13.486;2023-06-22T01:47:42;101652.69;;;22.72;71.11
9695;BME280;4690;52.422;13.486;2023-06-22T01:50:09;101649.91;;;22.72;71.38
9695;BME280;4690;52.422;13.486;2023-06-22T01:52:35;101652.41;;;22.73;71.51
9695;BME280;4690;52.422;13.486;2023-06-22T01:55:01;101644.03;;;22.73;71.53
9695;BME280;4690;52.422;13.486;2023-06-22T01:57:27;101645.69;;;22.74;71.27
9695;BME280;4690;52.422;13.486;2023-06-22T02:00:03;101643.72;;;22.75;70.58
9695;BME280;4690;52.422;13.486;2023-06-22T02:02:49;101649.03;;;22.76;70.48
9695;BME280;4690;52.422;13.486;2023-06-22T02:05:19;101640.94;;;22.75;70.19
9695;BME280;4690;52.422;13.486;2023-06-22T02:08:09;101645.44;;;22.71;70.49
9695;BME280;4690;52.422;13.486;2023-06-22T02:10:40;101644.06;;;22.68;71.09
9695;BME280;4690;52.422;13.486;2023-06-22T02:13:09;101644.59;;;22.70;70.55
9695;BME280;4690;52.422;13.486;2023-06-22T02:15:36;101651.31;;;22.69;71.21
9695;BME280;4690;52.422;13.486;2023-06-22T02:18:02;101649.38;;;22.70;70.89
9695;BME280;4690;52.422;13.486;2023-06-22T02:20:28;101652.16;;;22.70;70.77
9695;BME280;4690;52.422;13.486;2023-06-22T02:22:53;101657.44;;;22.71;70.73
9695;BME280;4690;52.422;13.486;2023-06-22T02:25:19;101660.25;;;22.71;71.00
9695;BME280;4690;52.422;13.486;2023-06-22T02:27:45;101668.06;;;22.69;71.16
9695;BME280;4690;52.422;13.486;2023-06-22T02:30:12;101668.63;;;22.71;71.55
9695;BME280;4690;52.422;13.486;2023-06-22T02:32:40;101662.78;;;22.68;71.96
9695;BME280;4690;52.422;13.486;2023-06-22T02:35:10;101663.34;;;22.65;71.95
9695;BME280;4690;52.422;13.486;2023-06-22T02:37:37;101663.63;;;22.63;71.72
9695;BME280;4690;52.422;13.486;2023-06-22T02:40:10;101663.09;;;22.61;71.70
9695;BME280;4690;52.422;13.486;2023-06-22T02:42:38;101658.88;;;22.64;71.53
9695;BME280;4690;52.422;13.486;2023-06-22T02:45:05;101663.94;;;22.62;71.42
9695;BME280;4690;52.422;13.486;2023-06-22T02:47:31;101661.66;;;22.64;71.13
9695;BME280;4690;52.422;13.486;2023-06-22T02:49:57;101666.72;;;22.62;71.95
9695;BME280;4690;52.422;13.486;2023-06-22T02:52:22;101659.75;;;22.59;71.84
9695;BME280;4690;52.422;13.486;2023-06-22T02:54:48;101662.81;;;22.57;72.13
9695;BME280;4690;52.422;13.486;2023-06-22T02:57:14;101664.78;;;22.57;72.09
9695;BME280;4690;52.422;13.486;2023-06-22T02:59:40;101669.53;;;22.56;72.05
9695;BME280;4690;52.422;13.486;2023-06-22T03:02:08;101679.03;;;22.55;72.34
9695;BME280;4690;52.422;13.486;2023-06-22T03:04:37;101670.66;;;22.55;72.64
9695;BME280;4690;52.422;13.486;2023-06-22T03:07:03;101665.34;;;22.54;72.34
9695;BME280;4690;52.422;13.486;2023-06-22T03:09:29;101663.94;;;22.56;72.36
9695;BME280;4690;52.422;13.486;2023-06-22T03:11:55;101666.75;;;22.56;72.92
9695;BME280;4690;52.422;13.486;2023-06-22T03:14:21;101666.19;;;22.54;72.68
9695;BME280;4690;52.422;13.486;2023-06-22T03:16:47;101669.53;;;22.56;72.77
9695;BME280;4690;52.422;13.486;2023-06-22T03:19:13;101666.44;;;22.58;72.65
9695;BME280;4690;52.422;13.486;2023-06-22T03:21:40;101665.34;;;22.59;72.49
9695;BME280;4690;52.422;13.486;2023-06-22T03:24:07;101649.97;;;22.56;73.31
9695;BME280;4690;52.422;13.486;2023-06-22T03:26:34;101654.72;;;22.56;73.02
9695;BME280;4690;52.422;13.486;2023-06-22T03:29:00;101664.53;;;22.53;73.23
9695;BME280;4690;52.422;13.486;2023-06-22T03:31:26;101663.94;;;22.56;73.15
9695;BME280;4690;52.422;13.486;2023-06-22T03:33:52;101655.84;;;22.55;73.47
9695;BME280;4690;52.422;13.486;2023-06-22T03:36:18;101660.59;;;22.54;73.40
9695;BME280;4690;52.422;13.486;2023-06-22T03:38:46;101658.63;;;22.55;73.67
9695;BME280;4690;52.422;13.486;2023-06-22T03:41:12;101665.06;;;22.55;73.75
9695;BME280;4690;52.422;13.486;2023-06-22T03:43:38;101665.06;;;22.55;73.71
9695;BME280;4690;52.422;13.486;2023-06-22T03:46:03;101671.19;;;22.57;74.06
9695;BME280;4690;52.422;13.486;2023-06-22T03:48:29;101668.41;;;22.57;73.78
9695;BME280;4690;52.422;13.486;2023-06-22T03:50:55;101664.50;;;22.58;73.59
9695;BME280;4690;52.422;13.486;2023-06-22T03:53:21;101671.19;;;22.57;74.51
9695;BME280;4690;52.422;13.486;2023-06-22T03:55:51;101666.16;;;22.59;73.95
9695;BME280;4690;52.422;13.486;2023-06-22T03:58:19;101676.78;;;22.63;73.26
9695;BME280;4690;52.422;13.486;2023-06-22T04:00:47;101677.34;;;22.59;73.74
9695;BME280;4690;52.422;13.486;2023-06-22T04:03:14;101676.50;;;22.59;73.46
9695;BME280;4690;52.422;13.486;2023-06-22T04:05:41;101672.59;;;22.60;73.63
9695;BME280;4690;52.422;13.486;2023-06-22T04:08:07;101681.22;;;22.64;73.42
9695;BME280;4690;52.422;13.486;2023-06-22T04:10:34;101682.66;;;22.61;73.33
9695;BME280;4690;52.422;13.486;2023-06-22T04:13:00;101679.56;;;22.57;73.95
9695;BME280;4690;52.422;13.486;2023-06-22T04:15:26;101679.88;;;22.61;73.24
9695;BME280;4690;52.422;13.486;2023-06-22T04:17:52;101674.81;;;22.58;73.31
9695;BME280;4690;52.422;13.486;2023-06-22T04:20:17;101681.31;;;22.43;73.61
9695;BME280;4690;52.422;13.486;2023-06-22T04:22:43;101685.22;;;22.42;74.06
9695;BME280;4690;52.422;13.486;2023-06-22T04:25:09;101684.94;;;22.44;73.65
9695;BME280;4690;52.422;13.486;2023-06-22T04:27:35;101683.78;;;22.55;73.47
9695;BME280;4690;52.422;13.486;2023-06-22T04:30:07;101691.00;;;22.66;73.26
9695;BME280;4690;52.422;13.486;2023-06-22T04:32:35;101688.44;;;22.80;72.40
9695;BME280;4690;52.422;13.486;2023-06-22T04:35:05;101692.31;;;22.89;71.94
9695;BME280;4690;52.422;13.486;2023-06-22T04:37:32;101693.69;;;22.97;71.00
9695;BME280;4690;52.422;13.486;2023-06-22T04:39:58;101692.88;;;22.96;71.58
9695;BME280;4690;52.422;13.486;2023-06-22T04:42:27;101704.00;;;23.07;71.47
9695;BME280;4690;52.422;13.486;2023-06-22T04:44:54;101700.03;;;23.18;69.83
9695;BME280;4690;52.422;13.486;2023-06-22T04:47:20;101708.38;;;23.23;70.16
9695;BME280;4690;52.422;13.486;2023-06-22T04:49:46;101705.53;;;23.28;69.68
9695;BME280;4690;52.422;13.486;2023-06-22T04:52:13;101704.09;;;23.36;69.29
9695;BME280;4690;52.422;13.486;2023-06-22T04:54:45;101704.06;;;23.41;69.02
9695;BME280;4690;52.422;13.486;2023-06-22T04:57:20;101710.50;;;23.41;68.84
9695;BME280;4690;52.422;13.486;2023-06-22T04:59:46;101704.03;;;23.46;68.31
9695;BME280;4690;52.422;13.486;2023-06-22T05:02:12;101706.22;;;23.54;68.04
9695;BME280;4690;52.422;13.486;2023-06-22T05:04:38;101711.16;;;23.62;67.93
9695;BME280;4690;52.422;13.486;2023-06-22T05:07:04;101712.78;;;23.74;66.88
9695;BME280;4690;52.422;13.486;2023-06-22T05:09:31;101705.19;;;23.79;66.01
9695;BME280;4690;52.422;13.486;2023-06-22T05:11:57;101709.56;;;23.90;66.85
9695;BME280;4690;52.422;13.486;2023-06-22T05:14:22;101706.78;;;23.90;66.44
9695;BME280;4690;52.422;13.486;2023-06-22T05:16:49;101706.75;;;23.96;66.22
9695;BME280;4690;52.422;13.486;2023-06-22T05:19:15;101698.03;;;24.02;65.67
9695;BME280;4690;52.422;13.486;2023-06-22T05:21:41;101697.66;;;24.09;64.73
9695;BME280;4690;52.422;13.486;2023-06-22T05:24:07;101702.38;;;24.13;63.70
9695;BME280;4690;52.422;13.486;2023-06-22T05:26:34;101700.97;;;24.16;62.73
9695;BME280;4690;52.422;13.486;2023-06-22T05:29:02;101715.00;;;24.11;61.30
9695;BME280;4690;52.422;13.486;2023-06-22T05:31:29;101709.66;;;24.14;61.05
9695;BME280;4690;52.422;13.486;2023-06-22T05:33:55;101714.75;;;24.07;61.71
9695;BME280;4690;52.422;13.486;2023-06-22T05:36:22;101714.97;;;24.16;61.19
9695;BME280;4690;52.422;13.486;2023-06-22T05:38:52;101708.13;;;24.27;62.40
9695;BME280;4690;52.422;13.486;2023-06-22T05:41:18;101714.44;;;24.38;61.48
9695;BME280;4690;52.422;13.486;2023-06-22T05:43:44;101713.53;;;24.48;61.82
9695;BME280;4690;52.422;13.486;2023-06-22T05:46:10;101721.75;;;24.63;61.28
9695;BME280;4690;52.422;13.486;2023-06-22T05:48:35;101723.03;;;24.76;60.50
9695;BME280;4690;52.422;13.486;2023-06-22T05:51:01;101723.44;;;24.88;59.63
9695;BME280;4690;52.422;13.486;2023-06-22T05:53:27;101735.13;;;24.95;60.12
9695;BME280;4690;52.422;13.486;2023-06-22T05:55:53;101729.81;;;24.94;59.65
9695;BME280;4690;52.422;13.486;2023-06-22T05:58:18;101727.53;;;24.96;58.76
9695;BME280;4690;52.422;13.486;2023-06-22T06:00:44;101732.31;;;24.95;59.43
9695;BME280;4690;52.422;13.486;2023-06-22T06:03:12;101733.44;;;24.94;59.57
9695;BME280;4690;52.422;13.486;2023-06-22T06:05:41;101741.94;;;24.89;58.88
9695;BME280;4690;52.422;13.486;2023-06-22T06:08:07;101738.59;;;24.87;58.77
9695;BME280;4690;52.422;13.486;2023-06-22T06:10:33;101733.44;;;24.94;58.39
9695;BME280;4690;52.422;13.486;2023-06-22T06:12:59;101732.56;;;24.99;58.86
9695;BME280;4690;52.422;13.486;2023-06-22T06:15:28;101720.34;;;25.09;58.54
9695;BME280;4690;52.422;13.486;2023-06-22T06:17:54;101721.63;;;25.21;57.82
9695;BME280;4690;52.422;13.486;2023-06-22T06:20:25;101719.88;;;25.25;55.76
9695;BME280;4690;52.422;13.486;2023-06-22T06:22:53;101715.13;;;25.26;55.36
9695;BME280;4690;52.422;13.486;2023-06-22T06:25:19;101717.06;;;25.44;56.56
9695;BME280;4690;52.422;13.486;2023-06-22T06:27:48;101714.88;;;25.60;55.36
9695;BME280;4690;52.422;13.486;2023-06-22T06:30:17;101719.94;;;25.77;54.17
9695;BME280;4690;52.422;13.486;2023-06-22T06:32:44;101724.28;;;25.88;54.70
9695;BME280;4690;52.422;13.486;2023-06-22T06:35:12;101725.44;;;26.01;52.28
9695;BME280;4690;52.422;13.486;2023-06-22T06:37:41;101731.44;;;26.13;53.05
9695;BME280;4690;52.422;13.486;2023-06-22T06:40:10;101732.16;;;26.19;50.79
9695;BME280;4690;52.422;13.486;2023-06-22T06:42:45;101734.31;;;26.08;51.37
9695;BME280;4690;52.422;13.486;2023-06-22T06:45:19;101724.56;;;26.20;51.84
9695;BME280;4690;52.422;13.486;2023-06-22T06:47:46;101729.50;;;26.42;51.95
9695;BME280;4690;52.422;13.486;2023-06-22T06:50:12;101715.50;;;26.55;50.99
9695;BME280;4690;52.422;13.486;2023-06-22T06:52:38;101711.19;;;26.72;51.47
9695;BME280;4690;52.422;13.486;2023-06-22T06:55:05;101714.75;;;26.77;51.56
9695;BME280;4690;52.422;13.486;2023-06-22T06:57:40;101719.53;;;26.91;50.27
9695;BME280;4690;52.422;13.486;2023-06-22T07:00:17;101719.53;;;27.04;48.49
9695;BME280;4690;52.422;13.486;2023-06-22T07:02:44;101714.91;;;27.09;48.87
9695;BME280;4690;52.422;13.486;2023-06-22T07:05:11;101713.91;;;27.04;47.30
9695;BME280;4690;52.422;13.486;2023-06-22T07:07:38;101712.88;;;27.00;47.04
9695;BME280;4690;52.422;13.486;2023-06-22T07:10:06;101698.81;;;27.00;47.66
9695;BME280;4690;52.422;13.486;2023-06-22T07:12:32;101701.50;;;26.92;47.99
9695;BME280;4690;52.422;13.486;2023-06-22T07:15:05;101696.19;;;27.04;46.91
9695;BME280;4690;52.422;13.486;2023-06-22T07:17:34;101682.59;;;27.20;48.36
9695;BME280;4690;52.422;13.486;2023-06-22T07:20:00;101679.69;;;27.25;48.86
9695;BME280;4690;52.422;13.486;2023-06-22T07:22:26;101677.28;;;27.32;48.17
9695;BME280;4690;52.422;13.486;2023-06-22T07:24:52;101680.28;;;27.36;45.45
9695;BME280;4690;52.422;13.486;2023-06-22T07:27:18;101682.03;;;27.45;47.43
9695;BME280;4690;52.422;13.486;2023-06-22T07:29:48;101677.47;;;27.58;44.77
9695;BME280;4690;52.422;13.486;2023-06-22T07:32:13;101673.84;;;27.58;45.16
9695;BME280;4690;52.422;13.486;2023-06-22T07:34:39;101684.59;;;27.56;44.90
9695;BME280;4690;52.422;13.486;2023-06-22T07:37:05;101669.84;;;27.59;43.58
9695;BME280;4690;52.422;13.486;2023-06-22T07:39:31;101672.19;;;27.57;45.49
9695;BME280;4690;52.422;13.486;2023-06-22T07:41:57;101672.78;;;27.54;43.63
9695;BME280;4690;52.422;13.486;2023-06-22T07:44:26;101681.41;;;27.48;44.03
9695;BME280;4690;52.422;13.486;2023-06-22T07:46:52;101681.50;;;27.43;44.67
9695;BME280;4690;52.422;13.486;2023-06-22T07:49:20;101680.28;;;27.36;44.26
9695;BME280;4690;52.422;13.486;2023-06-22T07:51:46;101683.72;;;27.33;44.37
9695;BME280;4690;52.422;13.486;2023-06-22T07:54:12;101681.09;;;27.36;44.74
9695;BME280;4690;52.422;13.486;2023-06-22T07:56:37;101681.75;;;27.33;44.94
9695;BME280;4690;52.422;13.486;2023-06-22T07:59:03;101675.41;;;27.27;44.10
9695;BME280;4690;52.422;13.486;2023-06-22T08:01:29;101679.56;;;27.30;44.45
9695;BME280;4690;52.422;13.486;2023-06-22T08:03:55;101685.19;;;27.30;44.74
9695;BME280;4690;52.422;13.486;2023-06-22T08:06:21;101686.66;;;27.27;44.82
9695;BME280;4690;52.422;13.486;2023-06-22T08:08:46;101677.38;;;27.27;46.02
9695;BME280;4690;52.422;13.486;2023-06-22T08:11:15;101686.47;;;27.10;45.80
9695;BME280;4690;52.422;13.486;2023-06-22T08:13:40;101685.75;;;27.18;45.71
9695;BME280;4690;52.422;13.486;2023-06-22T08:16:06;101682.00;;;27.23;47.00
9695;BME280;4690;52.422;13.486;2023-06-22T08:18:33;101677.69;;;27.25;44.75
9695;BME280;4690;52.422;13.486;2023-06-22T08:20:58;101677.38;;;27.27;45.09
9695;BME280;4690;52.422;13.486;2023-06-22T08:23:24;101676.44;;;27.32;46.40
9695;BME280;4690;52.422;13.486;2023-06-22T08:25:50;101667.47;;;27.30;45.63
9695;BME280;4690;52.422;13.486;2023-06-22T08:28:16;101678.94;;;27.33;45.98
9695;BME280;4690;52.422;13.486;2023-06-22T08:30:42;101677.47;;;27.36;45.20
9695;BME280;4690;52.422;13.486;2023-06-22T08:33:08;101670.38;;;27.38;43.99
9695;BME280;4690;52.422;13.486;2023-06-22T08:35:33;101675.16;;;27.38;44.28
9695;BME280;4690;52.422;13.486;2023-06-22T08:37:59;101675.16;;;27.38;43.60
9695;BME280;4690;52.422;13.486;2023-06-22T08:40:25;101671.53;;;27.37;43.40
9695;BME280;4690;52.422;13.486;2023-06-22T08:42:51;101667.75;;;27.42;42.79
9695;BME280;4690;52.422;13.486;2023-06-22T08:45:17;101680.69;;;27.43;42.61
9695;BME280;4690;52.422;13.486;2023-06-22T08:47:43;101676.25;;;27.50;43.83
9695;BME280;4690;52.422;13.486;2023-06-22T08:50:10;101676.66;;;27.58;41.84
9695;BME280;4690;52.422;13.486;2023-06-22T08:52:38;101680.34;;;27.67;42.78
9695;BME280;4690;52.422;13.486;2023-06-22T08:55:07;101680.06;;;27.68;43.71
9695;BME280;4690;52.422;13.486;2023-06-22T08:57:34;101677.72;;;27.70;43.72
9695;BME280;4690;52.422;13.486;2023-06-22T09:00:03;101681.06;;;27.72;43.27
9695;BME280;4690;52.422;13.486;2023-06-22T09:02:30;101683.75;;;27.78;42.48
9695;BME280;4690;52.422;13.486;2023-06-22T09:05:03;101688.56;;;27.77;41.21
9695;BME280;4690;52.422;13.486;2023-06-22T09:07:29;101677.91;;;27.88;43.01
9695;BME280;4690;52.422;13.486;2023-06-22T09:09:55;101676.13;;;28.01;42.71
9695;BME280;4690;52.422;13.486;2023-06-22T09:12:21;101663.56;;;28.07;41.65
9695;BME280;4690;52.422;13.486;2023-06-22T09:14:51;101663.69;;;28.24;42.14
9695;BME280;4690;52.422;13.486;2023-06-22T09:17:17;101656.38;;;28.32;41.29
9695;BME280;4690;52.422;13.486;2023-06-22T09:19:43;101663.75;;;28.42;40.81
9695;BME280;4690;52.422;13.486;2023-06-22T09:22:09;101654.97;;;28.43;40.19
9695;BME280;4690;52.422;13.486;2023-06-22T09:24:34;101664.63;;;28.51;39.18
9695;BME280;4690;52.422;13.486;2023-06-22T09:27:00;101659.13;;;28.46;39.54
9695;BME280;4690;52.422;13.486;2023-06-22T09:29:26;101660.31;;;28.45;41.17
9695;BME280;4690;52.422;13.486;2023-06-22T09:31:52;101664.47;;;28.47;40.21
9695;BME280;4690;52.422;13.486;2023-06-22T09:34:21;101664.94;;;28.49;39.03
9695;BME280;4690;52.422;13.486;2023-06-22T09:36:47;101653.22;;;28.56;38.40
9695;BME280;4690;52.422;13.486;2023-06-22T09:39:14;101651.38;;;28.60;38.38
9695;BME280;4690;52.422;13.486;2023-06-22T09:41:39;101665.03;;;28.67;39.05
9695;BME280;4690;52.422;13.486;2023-06-22T09:44:05;101656.88;;;28.65;37.72
9695;BME280;4690;52.422;13.486;2023-06-22T09:46:31;101650.41;;;28.65;37.75
9695;BME280;4690;52.422;13.486;2023-06-22T09:48:57;101653.22;;;28.56;38.00
9695;BME280;4690;52.422;13.486;2023-06-22T09:51:23;101655.72;;;28.66;37.15
9695;BME280;4690;52.422;13.486;2023-06-22T09:53:50;101653.09;;;28.70;38.01
9695;BME280;4690;52.422;13.486;2023-06-22T09:56:16;101650.25;;;28.70;38.43
9695;BME280;4690;52.422;13.486;2023-06-22T09:58:43;101645.59;;;28.74;38.42
9695;BME280;4690;52.422;13.486;2023-06-22T10:01:09;101640.63;;;28.79;38.81
9695;BME280;4690;52.422;13.486;2023-06-22T10:03:40;101643.13;;;28.72;37.75
9695;BME280;4690;52.422;13.486;2023-06-22T10:06:07;101645.44;;;28.70;37.50
9695;BME280;4690;52.422;13.486;2023-06-22T10:08:34;101638.47;;;28.76;37.86
9695;BME280;4690;52.422;13.486;2023-06-22T10:11:00;101649.78;;;28.85;37.98
9695;BME280;4690;52.422;13.486;2023-06-22T10:13:26;101642.34;;;28.89;39.22
9695;BME280;4690;52.422;13.486;2023-06-22T10:15:52;101642.00;;;28.99;37.20
9695;BME280;4690;52.422;13.486;2023-06-22T10:18:19;101644.50;;;29.01;37.34
9695;BME280;4690;52.422;13.486;2023-06-22T10:20:51;101642.81;;;29.00;37.60
9695;BME280;4690;52.422;13.486;2023-06-22T10:23:20;101650.13;;;28.92;37.34
9695;BME280;4690;52.422;13.486;2023-06-22T10:25:46;101633.69;;;28.94;38.53
9695;BME280;4690;52.422;13.486;2023-06-22T10:28:12;101644.31;;;28.97;38.40
9695;BME280;4690;52.422;13.486;2023-06-22T10:30:42;101631.75;;;29.03;37.72
9695;BME280;4690;52.422;13.486;2023-06-22T10:33:09;101630.03;;;29.02;37.29
9695;BME280;4690;52.422;13.486;2023-06-22T10:35:36;101629.41;;;29.05;37.50
9695;BME280;4690;52.422;13.486;2023-06-22T10:38:05;101632.91;;;29.11;36.81
9695;BME280;4690;52.422;13.486;2023-06-22T10:40:31;101620.94;;;29.14;37.66
9695;BME280;4690;52.422;13.486;2023-06-22T10:42:57;101623.28;;;29.12;36.77
9695;BME280;4690;52.422;13.486;2023-06-22T10:45:23;101625.28;;;29.12;37.54
9695;BME280;4690;52.422;13.486;2023-06-22T10:47:49;101619.28;;;29.13;36.66
9695;BME280;4690;52.422;13.486;2023-06-22T10:50:15;101624.94;;;29.13;37.16
9695;BME280;4690;52.422;13.486;2023-06-22T10:52:40;101622.63;;;29.33;37.28
9695;BME280;4690;52.422;13.486;2023-06-22T10:55:10;101620.09;;;29.57;36.18
9695;BME280;4690;52.422;13.486;2023-06-22T10:57:36;101611.25;;;29.85;36.34
9695;BME280;4690;52.422;13.486;2023-06-22T11:00:03;101602.53;;;30.07;35.72
9695;BME280;4690;52.422;13.486;2023-06-22T11:02:31;101608.47;;;30.14;35.30
9695;BME280;4690;52.422;13.486;2023-06-22T11:04:57;101600.75;;;30.32;35.27
9695;BME280;4690;52.422;13.486;2023-06-22T11:07:26;101596.53;;;30.47;34.72
9695;BME280;4690;52.422;13.486;2023-06-22T11:09:54;101592.16;;;30.58;35.07
9695;BME280;4690;52.422;13.486;2023-06-22T11:12:20;101608.56;;;30.65;35.70
9695;BME280;4690;52.422;13.486;2023-06-22T11:14:46;101598.16;;;30.78;33.40
9695;BME280;4690;52.422;13.486;2023-06-22T11:17:12;101594.84;;;30.76;34.20
9695;BME280;4690;52.422;13.486;2023-06-22T11:19:37;101593.66;;;30.77;34.13
9695;BME280;4690;52.422;13.486;2023-06-22T11:22:03;101569.34;;;30.85;33.70
9695;BME280;4690;52.422;13.486;2023-06-22T11:24:29;101581.84;;;30.84;33.60
9695;BME280;4690;52.422;13.486;2023-06-22T11:26:55;101571.34;;;30.84;34.08
9695;BME280;4690;52.422;13.486;2023-06-22T11:29:21;101573.28;;;30.92;35.19
9695;BME280;4690;52.422;13.486;2023-06-22T11:31:47;101568.25;;;30.98;33.46
9695;BME280;4690;52.422;13.486;2023-06-22T11:34:15;101565.31;;;31.07;34.42
9695;BME280;4690;52.422;13.486;2023-06-22T11:36:41;101560.41;;;31.16;33.18
9695;BME280;4690;52.422;13.486;2023-06-22T11:39:08;101563.28;;;31.28;33.42
9695;BME280;4690;52.422;13.486;2023-06-22T11:41:35;101562.59;;;31.31;32.13
9695;BME280;4690;52.422;13.486;2023-06-22T11:44:01;101557.06;;;31.35;32.71
9695;BME280;4690;52.422;13.486;2023-06-22T11:46:26;101563.69;;;31.39;33.55
9695;BME280;4690;52.422;13.486;2023-06-22T11:48:52;101567.03;;;31.41;32.16
9695;BME280;4690;52.422;13.486;2023-06-22T11:51:18;101565.56;;;31.35;32.47
9695;BME280;4690;52.422;13.486;2023-06-22T11:53:44;101567.34;;;31.39;32.38
9695;BME280;4690;52.422;13.486;2023-06-22T11:56:09;101572.25;;;31.51;34.38
9695;BME280;4690;52.422;13.486;2023-06-22T11:58:35;101581.13;;;31.62;33.18
9695;BME280;4690;52.422;13.486;2023-06-22T12:01:01;101579.03;;;31.71;32.97
9695;BME280;4690;52.422;13.486;2023-06-22T12:03:26;101569.59;;;31.79;32.05
9695;BME280;4690;52.422;13.486;2023-06-22T12:05:52;101564.06;;;31.83;30.26
9695;BME280;4690;52.422;13.486;2023-06-22T12:08:18;101565.91;;;31.79;31.64
9695;BME280;4690;52.422;13.486;2023-06-22T12:10:44;101561.78;;;31.76;30.53
9695;BME280;4690;52.422;13.486;2023-06-22T12:13:10;101563.09;;;31.79;31.78
9695;BME280;4690;52.422;13.486;2023-06-22T12:15:35;101551.91;;;31.82;30.89
9695;BME280;4690;52.422;13.486;2023-06-22T12:18:01;101539.13;;;31.88;31.89
9695;BME280;4690;52.422;13.486;2023-06-22T12:20:28;101545.78;;;31.92;30.62
9695;BME280;4690;52.422;13.486;2023-06-22T12:22:54;101541.41;;;31.95;32.51
9695;BME280;4690;52.422;13.486;2023-06-22T12:25:22;101545.28;;;31.90;30.56
9695;BME280;4690;52.422;13.486;2023-06-22T12:27:48;101537.47;;;31.87;31.64
9695;BME280;4690;52.422;13.486;2023-06-22T12:30:16;101538.31;;;31.88;31.49
9695;BME280;4690;52.422;13.486;2023-06-22T12:32:41;101534.63;;;31.75;30.75
9695;BME280;4690;52.422;13.486;2023-06-22T12:35:07;101523.72;;;31.65;30.40
9695;BME280;4690;52.422;13.486;2023-06-22T12:37:43;101525.97;;;31.59;31.06
9695;BME280;4690;52.422;13.486;2023-06-22T12:40:10;101527.16;;;31.58;31.00
9695;BME280;4690;52.422;13.486;2023-06-22T12:42:35;101518.56;;;31.67;31.30
9695;BME280;4690;52.422;13.486;2023-06-22T12:45:01;101515.00;;;31.58;31.08
9695;BME280;4690;52.422;13.486;2023-06-22T12:47:27;101510.63;;;31.60;32.29
9695;BME280;4690;52.422;13.486;2023-06-22T12:49:53;101509.56;;;31.53;32.09
9695;BME280;4690;52.422;13.486;2023-06-22T12:52:19;101504.59;;;31.37;32.24
9695;BME280;4690;52.422;13.486;2023-06-22T12:54:45;101493.38;;;31.41;32.50
9695;BME280;4690;52.422;13.486;2023-06-22T12:57:10;101497.41;;;31.52;32.69
9695;BME280;4690;52.422;13.486;2023-06-22T12:59:36;101498.38;;;31.68;32.67
9695;BME280;4690;52.422;13.486;2023-06-22T13:02:02;101491.41;;;31.78;32.44
9695;BME280;4690;52.422;13.486;2023-06-22T13:04:28;101487.75;;;31.78;31.38
9695;BME280;4690;52.422;13.486;2023-06-22T13:06:54;101485.63;;;31.62;31.59